createdAt,value
2022-09-25T00:00:55.012Z,21.20
2022-09-25T00:03:24.936Z,19.57
2022-09-25T00:05:52.128Z,20.27
2022-09-25T00:08:19.997Z,18.30
2022-09-25T00:10:50.063Z,20.07
2022-09-25T00:13:18.929Z,19.73
2022-09-25T00:15:50.503Z,18.97
2022-09-25T00:18:37.897Z,19.13
2022-09-25T00:21:05.601Z,17.87
2022-09-25T00:23:33.705Z,18.57
2022-09-25T00:26:05.962Z,17.20
2022-09-25T00:28:32.752Z,18.20
2022-09-25T00:30:59.889Z,18.37
2022-09-25T00:33:28.609Z,17.30
2022-09-25T00:35:55.441Z,16.57
2022-09-25T00:38:22.078Z,17.93
2022-09-25T00:40:48.827Z,17.07
2022-09-25T00:43:33.115Z,16.20
2022-09-25T00:46:01.922Z,17.77
2022-09-25T00:48:30.741Z,16.83
2022-09-25T00:50:59.137Z,16.50
2022-09-25T00:53:32.679Z,17.00
2022-09-25T00:56:01.415Z,15.00
2022-09-25T00:58:31.951Z,16.37
2022-09-25T01:00:59.549Z,16.43
2022-09-25T01:03:27.420Z,16.20
2022-09-25T01:05:55.467Z,17.10
2022-09-25T01:08:26.283Z,16.57
2022-09-25T01:10:53.135Z,16.93
2022-09-25T01:13:20.313Z,18.00
2022-09-25T01:16:08.178Z,17.57
2022-09-25T01:18:53.153Z,16.97
2022-09-25T01:21:44.108Z,17.33
2022-09-25T01:24:48.304Z,15.70
2022-09-25T01:27:14.974Z,16.80
2022-09-25T01:29:47.306Z,16.57
2022-09-25T01:32:33.461Z,16.70
2022-09-25T01:35:06.706Z,17.37
2022-09-25T01:37:38.921Z,16.03
2022-09-25T01:40:22.831Z,17.07
2022-09-25T01:43:01.827Z,17.60
2022-09-25T01:46:01.360Z,17.57
2022-09-25T01:48:31.679Z,16.13
2022-09-25T01:51:02.879Z,15.63
2022-09-25T01:53:39.227Z,15.13
2022-09-25T01:56:23.181Z,15.90
2022-09-25T01:58:58.574Z,18.37
2022-09-25T02:01:32.514Z,16.30
2022-09-25T02:04:08.162Z,16.83
2022-09-25T02:06:38.351Z,15.13
2022-09-25T02:09:11.179Z,19.40
2022-09-25T02:11:43.527Z,14.23
2022-09-25T02:14:28.000Z,14.87
2022-09-25T02:16:57.878Z,15.67
2022-09-25T02:19:44.145Z,16.60
2022-09-25T02:22:15.510Z,15.90
2022-09-25T02:25:02.525Z,16.87
2022-09-25T02:27:29.388Z,16.50
2022-09-25T02:29:58.283Z,16.60
2022-09-25T02:32:34.056Z,19.43
2022-09-25T02:35:01.145Z,19.30
2022-09-25T02:37:28.414Z,17.77
2022-09-25T02:39:58.050Z,21.67
2022-09-25T02:42:43.115Z,18.80
2022-09-25T02:45:17.800Z,20.40
2022-09-25T02:47:51.790Z,21.40
2022-09-25T02:51:02.854Z,21.73
2022-09-25T02:53:32.553Z,18.93
2022-09-25T02:56:24.911Z,19.47
2022-09-25T02:58:56.183Z,20.60
2022-09-25T03:01:26.154Z,19.17
2022-09-25T03:03:57.425Z,18.67
2022-09-25T03:06:25.283Z,18.13
2022-09-25T03:08:56.693Z,22.63
2022-09-25T03:11:26.813Z,21.73
2022-09-25T03:14:01.683Z,20.87
2022-09-25T03:16:39.184Z,19.80
2022-09-25T03:19:06.179Z,20.47
2022-09-25T03:21:33.084Z,19.80
2022-09-25T03:24:00.422Z,20.10
2022-09-25T03:26:27.839Z,21.60
2022-09-25T03:28:54.763Z,19.63
2022-09-25T03:31:21.694Z,18.67
2022-09-25T03:33:48.817Z,20.80
2022-09-25T03:36:21.130Z,20.57
2022-09-25T03:38:50.519Z,20.27
2022-09-25T03:41:21.185Z,20.43
2022-09-25T03:43:51.492Z,18.63
2022-09-25T03:46:21.123Z,18.27
2022-09-25T03:48:48.305Z,19.23
2022-09-25T03:51:15.508Z,17.50
2022-09-25T03:53:42.272Z,18.23
2022-09-25T03:56:13.135Z,18.07
2022-09-25T03:58:40.499Z,18.23
2022-09-25T04:01:07.399Z,19.10
2022-09-25T04:03:34.663Z,18.77
2022-09-25T04:06:06.121Z,19.50
2022-09-25T04:08:34.366Z,19.17
2022-09-25T04:11:02.828Z,21.50
2022-09-25T04:13:36.286Z,18.00
2022-09-25T04:16:05.571Z,21.67
2022-09-25T04:18:32.750Z,20.23
2022-09-25T04:21:06.647Z,20.87
2022-09-25T04:23:33.518Z,19.77
2022-09-25T04:26:00.429Z,19.67
2022-09-25T04:28:27.494Z,19.53
2022-09-25T04:30:54.263Z,19.13
2022-09-25T04:33:39.583Z,19.70
2022-09-25T04:36:06.671Z,18.13
2022-09-25T04:38:33.437Z,18.80
2022-09-25T04:41:01.543Z,20.53
2022-09-25T04:43:32.458Z,21.17
2022-09-25T04:46:08.230Z,21.03
2022-09-25T04:48:35.698Z,19.03
2022-09-25T04:51:03.293Z,19.87
2022-09-25T04:53:31.741Z,18.80
2022-09-25T04:56:12.291Z,16.83
2022-09-25T04:58:45.058Z,16.70
2022-09-25T05:01:11.814Z,15.40
2022-09-25T05:03:38.543Z,14.50
2022-09-25T05:06:05.438Z,14.93
2022-09-25T05:08:32.132Z,15.77
2022-09-25T05:10:59.005Z,16.97
2022-09-25T05:13:26.071Z,18.30
2022-09-25T05:15:55.035Z,16.70
2022-09-25T05:18:24.081Z,15.40
2022-09-25T05:20:53.306Z,17.20
2022-09-25T05:23:20.869Z,15.93
2022-09-25T05:25:55.243Z,15.57
2022-09-25T05:28:23.511Z,15.60
2022-09-25T05:30:50.982Z,15.30
2022-09-25T05:33:18.919Z,14.97
2022-09-25T05:35:45.939Z,14.27
2022-09-25T05:38:12.642Z,14.13
2022-09-25T05:40:39.537Z,12.80
2022-09-25T05:43:07.162Z,13.80
2022-09-25T05:45:34.928Z,14.77
2022-09-25T05:48:06.666Z,13.80
2022-09-25T05:50:33.885Z,12.77
2022-09-25T05:53:02.647Z,11.93
2022-09-25T05:55:30.430Z,12.00
2022-09-25T05:58:04.520Z,12.37
2022-09-25T06:00:33.713Z,10.93
2022-09-25T06:03:01.606Z,10.87
2022-09-25T06:05:28.829Z,10.80
2022-09-25T06:07:56.050Z,12.77
2022-09-25T06:10:25.177Z,11.60
2022-09-25T06:12:54.430Z,10.47
2022-09-25T06:15:21.535Z,10.97
2022-09-25T06:17:48.222Z,11.60
2022-09-25T06:20:16.293Z,12.17
2022-09-25T06:22:44.397Z,11.90
2022-09-25T06:25:11.150Z,12.57
2022-09-25T06:27:37.851Z,11.87
2022-09-25T06:30:05.049Z,11.00
2022-09-25T06:32:31.683Z,11.47
2022-09-25T06:34:58.360Z,11.40
2022-09-25T06:37:25.016Z,12.10
2022-09-25T06:39:51.739Z,13.23
2022-09-25T06:42:18.390Z,11.97
2022-09-25T06:44:45.074Z,10.70
2022-09-25T06:47:18.661Z,10.43
2022-09-25T06:49:46.438Z,10.73
2022-09-25T06:52:13.478Z,10.77
2022-09-25T06:54:44.025Z,11.03
2022-09-25T06:57:12.727Z,10.73
2022-09-25T06:59:40.177Z,11.33
2022-09-25T07:02:27.461Z,11.70
2022-09-25T07:04:54.177Z,10.63
2022-09-25T07:07:21.133Z,10.97
2022-09-25T07:09:48.560Z,11.57
2022-09-25T07:12:21.826Z,10.57
2022-09-25T07:14:48.514Z,11.80
2022-09-25T07:17:15.224Z,12.00
2022-09-25T07:19:41.885Z,11.50
2022-09-25T07:22:08.534Z,11.57
2022-09-25T07:24:35.201Z,11.33
2022-09-25T07:27:01.849Z,12.27
2022-09-25T07:29:28.490Z,10.40
2022-09-25T07:31:55.158Z,10.77
2022-09-25T07:34:22.004Z,13.13
2022-09-25T07:36:48.709Z,11.70
2022-09-25T07:39:18.541Z,11.30
2022-09-25T07:41:46.173Z,12.50
2022-09-25T07:44:30.290Z,11.00
2022-09-25T07:47:02.546Z,11.83
2022-09-25T07:49:32.723Z,11.90
2022-09-25T07:51:59.704Z,12.80
2022-09-25T07:54:26.400Z,13.97
2022-09-25T07:56:53.138Z,13.23
2022-09-25T07:59:19.912Z,13.30
2022-09-25T08:01:52.724Z,12.60
2022-09-25T08:04:20.638Z,14.07
2022-09-25T08:06:47.289Z,14.07
2022-09-25T08:09:14.035Z,13.90
2022-09-25T08:11:41.085Z,13.00
2022-09-25T08:14:07.839Z,13.27
2022-09-25T08:16:34.612Z,12.87
2022-09-25T08:19:01.456Z,14.63
2022-09-25T08:21:28.265Z,14.90
2022-09-25T08:23:56.505Z,13.77
2022-09-25T08:26:23.720Z,14.40
2022-09-25T08:28:50.912Z,15.73
2022-09-25T08:31:18.233Z,15.30
2022-09-25T08:33:49.598Z,15.33
2022-09-25T08:36:17.719Z,14.97
2022-09-25T08:38:45.343Z,14.33
2022-09-25T08:41:19.253Z,14.97
2022-09-25T08:43:55.304Z,12.80
2022-09-25T08:47:19.874Z,15.57
2022-09-25T08:50:01.589Z,15.30
2022-09-25T08:52:29.004Z,12.80
2022-09-25T08:54:55.720Z,14.57
2022-09-25T08:57:40.393Z,14.17
2022-09-25T09:00:19.352Z,15.40
2022-09-25T09:02:53.104Z,13.90
2022-09-25T09:05:26.557Z,13.50
2022-09-25T09:08:25.258Z,13.83
2022-09-25T09:10:58.967Z,16.90
2022-09-25T09:13:49.588Z,16.07
2022-09-25T09:16:22.760Z,13.67
2022-09-25T09:18:49.916Z,13.80
2022-09-25T09:21:28.703Z,12.73
2022-09-25T09:24:12.954Z,13.93
2022-09-25T09:26:57.776Z,14.23
2022-09-25T09:29:33.388Z,12.50
2022-09-25T09:32:25.994Z,11.60
2022-09-25T09:35:08.171Z,12.50
2022-09-25T09:37:52.499Z,14.73
2022-09-25T09:40:19.397Z,13.00
2022-09-25T09:43:04.255Z,12.60
2022-09-25T09:45:44.634Z,12.83
2022-09-25T09:48:39.213Z,11.50
2022-09-25T09:51:30.780Z,11.40
2022-09-25T09:54:12.745Z,12.93
2022-09-25T09:56:42.856Z,10.33
2022-09-25T09:59:20.760Z,8.47
2022-09-25T10:01:59.376Z,9.60
2022-09-25T10:04:33.670Z,8.87
2022-09-25T10:07:14.124Z,10.20
2022-09-25T10:09:40.809Z,8.90
2022-09-25T10:12:35.066Z,9.40
2022-09-25T10:15:15.187Z,10.03
2022-09-25T10:17:43.101Z,9.20
2022-09-25T10:20:22.116Z,10.83
2022-09-25T10:22:53.273Z,10.20
2022-09-25T10:25:37.254Z,10.30
2022-09-25T10:28:34.231Z,10.10
2022-09-25T10:31:02.586Z,9.33
2022-09-25T10:33:32.811Z,11.03
2022-09-25T10:35:59.998Z,14.50
2022-09-25T10:38:53.510Z,14.37
2022-09-25T10:41:25.923Z,12.03
2022-09-25T10:43:54.936Z,11.40
2022-09-25T10:46:51.609Z,11.90
2022-09-25T10:49:36.966Z,12.40
2022-09-25T10:52:10.418Z,13.03
2022-09-25T10:54:43.558Z,14.37
2022-09-25T10:57:35.262Z,12.73
2022-09-25T11:00:07.361Z,12.93
2022-09-25T11:02:38.029Z,15.10
2022-09-25T11:05:07.440Z,14.20
2022-09-25T11:07:34.904Z,16.60
2022-09-25T11:10:01.935Z,15.90
2022-09-25T11:12:32.491Z,15.67
2022-09-25T11:15:02.505Z,17.37
2022-09-25T11:17:41.959Z,16.20
2022-09-25T11:20:29.277Z,17.10
2022-09-25T11:23:05.544Z,17.33
2022-09-25T11:26:00.075Z,16.77
2022-09-25T11:28:42.111Z,18.80
2022-09-25T11:31:26.659Z,20.23
2022-09-25T11:34:17.238Z,17.20
2022-09-25T11:36:49.394Z,17.80
2022-09-25T11:40:13.777Z,17.27
2022-09-25T11:42:51.929Z,17.50
2022-09-25T11:45:36.444Z,16.73
2022-09-25T11:48:14.063Z,18.43
2022-09-25T11:51:22.581Z,17.43
2022-09-25T11:54:31.998Z,18.30
2022-09-25T11:57:22.906Z,18.60
2022-09-25T12:00:08.287Z,17.23
2022-09-25T12:02:49.424Z,17.90
2022-09-25T12:05:28.355Z,20.43
2022-09-25T12:08:06.964Z,20.07
2022-09-25T12:10:36.447Z,21.00
2022-09-25T12:13:44.675Z,18.33
2022-09-25T12:16:23.265Z,16.73
2022-09-25T12:19:00.621Z,17.67
2022-09-25T12:21:34.117Z,19.87
2022-09-25T12:24:09.134Z,21.37
2022-09-25T12:27:01.787Z,20.00
2022-09-25T12:29:57.983Z,19.77
2022-09-25T12:33:02.341Z,20.53
2022-09-25T12:35:50.809Z,15.70
2022-09-25T12:38:41.304Z,15.73
2022-09-25T12:41:30.377Z,17.50
2022-09-25T12:44:37.576Z,16.03
2022-09-25T12:47:09.147Z,20.40
2022-09-25T12:49:42.591Z,17.40
2022-09-25T12:52:37.998Z,17.00
2022-09-25T12:55:24.326Z,12.80
2022-09-25T12:58:10.410Z,11.77
2022-09-25T13:00:41.484Z,13.23
2022-09-25T13:03:13.716Z,13.37
2022-09-25T13:05:45.507Z,11.87
2022-09-25T13:08:30.398Z,12.33
2022-09-25T13:11:02.319Z,13.13
2022-09-25T13:13:32.565Z,10.90
2022-09-25T13:16:01.594Z,11.53
2022-09-25T13:18:30.713Z,10.53
2022-09-25T13:21:23.449Z,9.60
2022-09-25T13:23:53.039Z,11.17
2022-09-25T13:26:26.847Z,9.90
2022-09-25T13:28:59.213Z,10.80
2022-09-25T13:31:34.484Z,11.10
2022-09-25T13:34:01.209Z,11.23
2022-09-25T13:36:44.265Z,10.40
2022-09-25T13:39:44.832Z,9.27
2022-09-25T13:42:22.409Z,9.23
2022-09-25T13:44:56.234Z,9.40
2022-09-25T13:47:27.098Z,11.00
2022-09-25T13:50:04.639Z,11.13
2022-09-25T13:52:40.580Z,11.50
2022-09-25T13:55:21.333Z,12.10
2022-09-25T13:58:00.882Z,11.07
2022-09-25T14:00:33.752Z,11.50
2022-09-25T14:03:03.442Z,10.50
2022-09-25T14:05:37.086Z,10.20
2022-09-25T14:08:14.089Z,11.50
2022-09-25T14:10:51.235Z,10.67
2022-09-25T14:13:23.745Z,9.33
2022-09-25T14:15:51.855Z,9.67
2022-09-25T14:18:26.261Z,9.33
2022-09-25T14:20:59.709Z,9.17
2022-09-25T14:23:30.309Z,9.93
2022-09-25T14:26:02.436Z,8.93
2022-09-25T14:28:31.434Z,7.73
2022-09-25T14:31:09.503Z,7.63
2022-09-25T14:34:02.127Z,8.40
2022-09-25T14:36:36.781Z,6.43
2022-09-25T14:39:29.433Z,6.37
2022-09-25T14:42:27.350Z,7.80
2022-09-25T14:45:09.160Z,7.50
2022-09-25T14:47:45.178Z,8.40
2022-09-25T14:50:49.101Z,9.10
2022-09-25T14:53:46.106Z,7.23
2022-09-25T14:56:14.734Z,7.00
2022-09-25T14:58:49.548Z,5.93
2022-09-25T15:01:31.135Z,6.57
2022-09-25T15:04:03.990Z,6.77
2022-09-25T15:06:36.158Z,6.70
2022-09-25T15:09:29.619Z,6.33
2022-09-25T15:11:56.437Z,5.70
2022-09-25T15:14:23.216Z,5.63
2022-09-25T15:17:08.489Z,19.50
2022-09-25T15:19:39.685Z,8.63
2022-09-25T15:22:12.070Z,8.50
2022-09-25T15:24:46.736Z,8.73
2022-09-25T15:27:16.245Z,7.50
2022-09-25T15:29:45.605Z,5.57
2022-09-25T15:32:38.004Z,6.37
2022-09-25T15:35:07.639Z,6.50
2022-09-25T15:37:34.405Z,5.97
2022-09-25T15:40:27.880Z,6.10
2022-09-25T15:42:55.605Z,5.40
2022-09-25T15:45:39.763Z,5.23
2022-09-25T15:48:15.929Z,5.40
2022-09-25T15:50:44.667Z,4.93
2022-09-25T15:53:27.694Z,6.00
2022-09-25T15:56:06.409Z,5.27
2022-09-25T15:58:41.597Z,3.90
2022-09-25T16:01:31.275Z,3.60
2022-09-25T16:04:17.095Z,3.90
2022-09-25T16:06:45.077Z,9.40
2022-09-25T16:09:22.876Z,4.40
2022-09-25T16:11:49.969Z,2.60
2022-09-25T16:14:31.001Z,2.60
2022-09-25T16:16:59.958Z,2.30
2022-09-25T16:19:26.682Z,2.47
2022-09-25T16:21:54.547Z,2.37
2022-09-25T16:24:29.662Z,3.47
2022-09-25T16:27:01.384Z,2.37
2022-09-25T16:29:39.212Z,2.93
2022-09-25T16:32:11.019Z,2.30
2022-09-25T16:34:40.587Z,2.40
2022-09-25T16:37:23.800Z,2.57
2022-09-25T16:40:12.356Z,2.93
2022-09-25T16:42:40.182Z,2.53
2022-09-25T16:45:33.226Z,5.90
2022-09-25T16:48:22.146Z,4.10
2022-09-25T16:50:49.030Z,3.80
2022-09-25T16:53:15.697Z,5.97
2022-09-25T16:55:48.171Z,4.40
2022-09-25T16:58:15.082Z,4.20
2022-09-25T17:00:41.813Z,4.00
2022-09-25T17:03:12.135Z,3.90
2022-09-25T17:05:39.517Z,4.93
2022-09-25T17:08:18.872Z,4.60
2022-09-25T17:10:49.824Z,4.87
2022-09-25T17:13:19.296Z,5.50
2022-09-25T17:15:47.642Z,4.97
2022-09-25T17:18:18.844Z,5.03
2022-09-25T17:20:46.129Z,4.77
2022-09-25T17:23:14.802Z,4.13
2022-09-25T17:25:48.151Z,4.57
2022-09-25T17:28:15.506Z,4.00
2022-09-25T17:30:43.344Z,4.87
2022-09-25T17:33:17.253Z,4.40
2022-09-25T17:35:52.543Z,4.67
2022-09-25T17:38:20.013Z,5.03
2022-09-25T17:40:49.495Z,4.87
2022-09-25T17:43:16.512Z,4.80
2022-09-25T17:45:43.744Z,5.10
2022-09-25T17:48:11.940Z,18.83
2022-09-25T17:50:39.614Z,9.87
2022-09-25T17:53:17.471Z,6.40
2022-09-25T17:55:44.589Z,6.10
2022-09-25T17:58:11.685Z,6.27
2022-09-25T18:00:38.475Z,9.50
2022-09-25T18:03:05.775Z,10.13
2022-09-25T18:05:32.646Z,10.13
2022-09-25T18:07:59.577Z,11.73
2022-09-25T18:10:29.287Z,9.83
2022-09-25T18:12:57.169Z,9.93
2022-09-25T18:15:24.144Z,10.10
2022-09-25T18:17:51.042Z,9.93
2022-09-25T18:20:36.862Z,10.43
2022-09-25T18:23:04.020Z,12.73
2022-09-25T18:25:40.205Z,11.47
2022-09-25T18:28:08.551Z,12.80
2022-09-25T18:30:37.158Z,11.37
2022-09-25T18:33:04.267Z,14.60
2022-09-25T18:35:31.247Z,13.70
2022-09-25T18:37:59.435Z,14.83
2022-09-25T18:40:27.015Z,12.67
2022-09-25T18:42:53.994Z,12.50
2022-09-25T18:45:22.107Z,15.83
2022-09-25T18:47:49.211Z,14.80
2022-09-25T18:50:20.768Z,15.40
2022-09-25T18:52:48.111Z,15.10
2022-09-25T18:55:15.711Z,15.67
2022-09-25T18:57:43.280Z,14.90
2022-09-25T19:00:11.521Z,15.03
2022-09-25T19:02:42.690Z,15.13
2022-09-25T19:05:17.825Z,14.60
2022-09-25T19:07:45.251Z,15.27
2022-09-25T19:10:13.049Z,13.90
2022-09-25T19:12:40.097Z,15.87
2022-09-25T19:15:07.582Z,11.27
2022-09-25T19:17:36.031Z,14.27
2022-09-25T19:20:02.936Z,13.40
2022-09-25T19:22:29.732Z,15.13
2022-09-25T19:24:56.902Z,13.97
2022-09-25T19:27:25.494Z,13.50
2022-09-25T19:29:52.379Z,14.17
2022-09-25T19:32:19.241Z,11.83
2022-09-25T19:34:46.787Z,14.00
2022-09-25T19:37:15.315Z,13.07
2022-09-25T19:40:01.037Z,13.50
2022-09-25T19:42:28.603Z,13.33
2022-09-25T19:44:56.554Z,13.87
2022-09-25T19:47:23.630Z,12.87
2022-09-25T19:49:50.598Z,14.03
2022-09-25T19:52:20.501Z,13.87
2022-09-25T19:54:47.342Z,13.33
2022-09-25T19:57:14.459Z,12.90
2022-09-25T19:59:41.185Z,14.20
2022-09-25T20:02:09.642Z,12.27
2022-09-25T20:04:36.678Z,11.80
2022-09-25T20:07:03.507Z,13.40
2022-09-25T20:09:30.200Z,10.83
2022-09-25T20:11:56.994Z,11.07
2022-09-25T20:14:26.768Z,10.80
2022-09-25T20:16:54.559Z,11.13
2022-09-25T20:19:21.755Z,11.77
2022-09-25T20:21:49.710Z,11.80
2022-09-25T20:24:18.033Z,11.57
2022-09-25T20:26:44.751Z,12.20
2022-09-25T20:29:13.911Z,12.77
2022-09-25T20:31:43.239Z,12.87
2022-09-25T20:34:18.286Z,13.13
2022-09-25T20:36:46.602Z,12.80
2022-09-25T20:39:19.743Z,11.97
2022-09-25T20:41:48.137Z,12.83
2022-09-25T20:44:15.046Z,13.17
2022-09-25T20:46:42.164Z,12.63
2022-09-25T20:49:10.862Z,11.33
2022-09-25T20:51:38.087Z,12.80
2022-09-25T20:54:07.583Z,10.87
2022-09-25T20:56:35.674Z,10.97
2022-09-25T20:59:03.611Z,13.03
2022-09-25T21:01:36.486Z,10.37
2022-09-25T21:04:05.963Z,10.63
2022-09-25T21:06:34.488Z,10.63
2022-09-25T21:09:04.568Z,8.87
2022-09-25T21:11:32.411Z,11.10
2022-09-25T21:14:02.347Z,9.93
2022-09-25T21:16:30.958Z,9.67
2022-09-25T21:19:00.570Z,9.43
2022-09-25T21:21:28.846Z,10.57
2022-09-25T21:23:57.127Z,12.90
2022-09-25T21:26:27.677Z,9.67
2022-09-25T21:28:56.716Z,9.57
2022-09-25T21:31:26.086Z,11.80
2022-09-25T21:33:54.584Z,10.60
2022-09-25T21:36:22.661Z,8.60
2022-09-25T21:38:49.911Z,9.03
2022-09-25T21:41:22.228Z,9.90
2022-09-25T21:43:53.953Z,8.57
2022-09-25T21:46:21.030Z,7.90
2022-09-25T21:48:54.098Z,9.23
2022-09-25T21:51:22.866Z,8.63
2022-09-25T21:53:50.121Z,8.00
2022-09-25T21:56:21.521Z,8.27
2022-09-25T21:58:48.669Z,8.70
2022-09-25T22:01:21.130Z,9.03
2022-09-25T22:03:49.747Z,9.17
2022-09-25T22:06:22.402Z,8.43
2022-09-25T22:08:51.869Z,9.60
2022-09-25T22:11:19.312Z,8.67
2022-09-25T22:13:47.486Z,9.17
2022-09-25T22:16:18.929Z,8.53
2022-09-25T22:18:47.090Z,8.40
2022-09-25T22:21:17.638Z,9.10
2022-09-25T22:23:44.603Z,8.20
2022-09-25T22:26:12.987Z,8.90
2022-09-25T22:28:39.787Z,8.87
2022-09-25T22:31:12.380Z,14.40
2022-09-25T22:33:40.164Z,9.77
2022-09-25T22:36:08.768Z,9.17
2022-09-25T22:38:36.536Z,8.77
2022-09-25T22:41:08.845Z,8.53
2022-09-25T22:43:36.338Z,8.97
2022-09-25T22:46:03.541Z,8.73
2022-09-25T22:48:30.957Z,7.40
2022-09-25T22:51:01.599Z,7.83
2022-09-25T22:53:30.469Z,7.33
2022-09-25T22:56:10.153Z,10.17
2022-09-25T22:58:36.988Z,8.83
2022-09-25T23:01:06.517Z,10.10
2022-09-25T23:03:33.428Z,8.33
2022-09-25T23:06:01.425Z,9.83
2022-09-25T23:08:28.330Z,8.40
2022-09-25T23:11:07.201Z,8.80
2022-09-25T23:13:35.519Z,9.37
2022-09-25T23:16:08.452Z,9.73
2022-09-25T23:18:36.672Z,9.63
2022-09-25T23:21:04.589Z,8.30
2022-09-25T23:23:31.420Z,9.60
2022-09-25T23:26:03.517Z,9.27
2022-09-25T23:28:33.480Z,7.80
2022-09-25T23:31:10.630Z,7.80
2022-09-25T23:33:37.978Z,8.83
2022-09-25T23:36:07.257Z,8.50
2022-09-25T23:38:34.635Z,7.63
2022-09-25T23:41:02.163Z,7.80
2022-09-25T23:43:28.918Z,7.57
2022-09-25T23:45:55.819Z,7.93
2022-09-25T23:48:22.822Z,8.60
2022-09-25T23:50:51.265Z,7.87
2022-09-25T23:53:18.094Z,7.87
2022-09-25T23:55:44.958Z,7.97
2022-09-25T23:58:12.271Z,7.67
